Time;durP1;ratioP1;P1;durP2;ratioP2;P2;SDS_P1;SDS_P2;PMS_P1;PMS_P2;Temp;Humidity;BMP_temperature;BMP_pressure;BME280_temperature;BME280_humidity;BME280_pressure;Samples;Min_cycle;Max_cycle;Signal;HPM_P1;HPM_P2
2024/01/27 00:00:10;;;;;;;3.58;1.88;;;;;;;;;;5063469;28;20037;-76
2024/01/27 00:02:36;;;;;;;3.15;1.67;;;;;;;;;;5053197;28;20090;-76
2024/01/27 00:05:02;;;;;;;7.55;1.80;;;;;;;;;;5063858;28;20036;-76
2024/01/27 00:07:28;;;;;;;2.83;1.52;;;;;;;;;;5055120;28;20037;-76
2024/01/27 00:09:53;;;;;;;2.13;1.45;;;;;;;;;;5051261;28;20099;-76
2024/01/27 00:12:19;;;;;;;3.05;1.67;;;;;;;;;;5053232;28;20032;-76
2024/01/27 00:14:44;;;;;;;5.45;2.03;;;;;;;;;;5056381;28;20040;-75
2024/01/27 00:17:09;;;;;;;2.88;1.95;;;;;;;;;;5053577;28;20040;-75
2024/01/27 00:19:35;;;;;;;2.08;1.33;;;;;;;;;;5057439;28;20040;-76
2024/01/27 00:22:00;;;;;;;5.32;2.10;;;;;;;;;;5054577;28;20111;-76
2024/01/27 00:24:25;;;;;;;1.80;1.65;;;;;;;;;;5051690;28;20040;-76
2024/01/27 00:26:51;;;;;;;5.03;1.95;;;;;;;;;;5056732;28;20405;-75
2024/01/27 00:29:16;;;;;;;3.47;2.13;;;;;;;;;;5053502;28;20041;-75
2024/01/27 00:31:41;;;;;;;6.35;2.15;;;;;;;;;;5050602;28;20051;-75
2024/01/27 00:34:06;;;;;;;2.65;1.95;;;;;;;;;;5053174;28;20118;-75
2024/01/27 00:36:32;;;;;;;3.47;1.60;;;;;;;;;;5054380;28;20050;-75
2024/01/27 00:38:57;;;;;;;3.53;2.10;;;;;;;;;;5056290;28;20025;-75
2024/01/27 00:41:22;;;;;;;3.58;2.00;;;;;;;;;;5056936;28;20420;-76
2024/01/27 00:43:48;;;;;;;3.83;1.70;;;;;;;;;;5053018;28;20091;-75
2024/01/27 00:46:13;;;;;;;4.93;1.92;;;;;;;;;;5055555;28;20102;-75
2024/01/27 00:48:38;;;;;;;5.15;1.80;;;;;;;;;;5052917;28;20090;-75
2024/01/27 00:51:04;;;;;;;6.43;1.88;;;;;;;;;;5049883;28;20036;-75
2024/01/27 00:53:29;;;;;;;3.95;1.67;;;;;;;;;;5061380;28;20124;-75
2024/01/27 00:55:54;;;;;;;7.13;2.10;;;;;;;;;;5058834;28;20036;-75
2024/01/27 00:58:20;;;;;;;3.05;1.75;;;;;;;;;;5051064;28;20029;-75
2024/01/27 01:00:45;;;;;;;2.83;1.60;;;;;;;;;;5057207;28;20516;-76
2024/01/27 01:03:10;;;;;;;2.13;1.67;;;;;;;;;;5060485;28;20033;-76
2024/01/27 01:05:36;;;;;;;4.60;1.90;;;;;;;;;;5050467;28;20505;-75
2024/01/27 01:08:01;;;;;;;4.93;1.75;;;;;;;;;;5051750;28;20036;-75
2024/01/27 01:10:26;;;;;;;2.92;1.60;;;;;;;;;;5050007;28;20060;-76
2024/01/27 01:12:52;;;;;;;3.70;1.63;;;;;;;;;;5055660;28;20083;-75
2024/01/27 01:15:17;;;;;;;3.83;1.95;;;;;;;;;;5054906;28;20036;-75
2024/01/27 01:17:42;;;;;;;4.22;1.80;;;;;;;;;;5050996;28;20346;-75
2024/01/27 01:20:08;;;;;;;2.53;1.90;;;;;;;;;;5053645;28;20574;-75
2024/01/27 01:22:34;;;;;;;4.60;2.05;;;;;;;;;;5052372;28;20083;-77
2024/01/27 01:24:59;;;;;;;5.30;1.75;;;;;;;;;;5060774;28;20089;-74
2024/01/27 01:27:24;;;;;;;6.53;2.00;;;;;;;;;;5047654;28;20036;-76
2024/01/27 01:29:50;;;;;;;1.75;1.58;;;;;;;;;;5053464;28;20029;-76
2024/01/27 01:32:15;;;;;;;2.70;1.83;;;;;;;;;;5052970;28;20052;-74
2024/01/27 01:34:40;;;;;;;4.70;1.55;;;;;;;;;;5056694;28;20056;-76
2024/01/27 01:37:06;;;;;;;2.65;1.70;;;;;;;;;;5057718;28;20036;-74
2024/01/27 01:39:31;;;;;;;3.78;1.65;;;;;;;;;;5048331;28;20048;-76
2024/01/27 01:41:57;;;;;;;7.80;2.03;;;;;;;;;;5057735;28;20060;-76
2024/01/27 01:44:22;;;;;;;5.47;1.77;;;;;;;;;;5052000;28;20523;-76
2024/01/27 01:46:47;;;;;;;1.73;1.42;;;;;;;;;;5051061;28;20094;-76
2024/01/27 01:49:13;;;;;;;4.65;1.77;;;;;;;;;;5052203;28;20048;-76
2024/01/27 01:51:39;;;;;;;4.97;1.88;;;;;;;;;;5050571;28;20047;-76
2024/01/27 01:54:05;;;;;;;5.25;2.35;;;;;;;;;;5051228;28;20041;-76
2024/01/27 01:56:30;;;;;;;2.10;1.80;;;;;;;;;;5054551;28;20038;-76
2024/01/27 01:58:55;;;;;;;2.85;1.80;;;;;;;;;;5062200;28;20037;-74
2024/01/27 02:01:21;;;;;;;3.60;1.95;;;;;;;;;;5050291;28;20497;-76
2024/01/27 02:03:57;;;;;;;4.80;1.85;;;;;;;;;;5049448;28;20048;-76
2024/01/27 02:06:22;;;;;;;8.48;2.03;;;;;;;;;;5049725;28;20047;-76
2024/01/27 02:08:47;;;;;;;8.57;2.45;;;;;;;;;;5055257;28;20401;-74
2024/01/27 02:11:13;;;;;;;3.88;2.13;;;;;;;;;;5055403;28;20522;-75
2024/01/27 02:13:38;;;;;;;4.90;2.22;;;;;;;;;;5059434;28;20090;-75
2024/01/27 02:16:04;;;;;;;2.42;1.67;;;;;;;;;;5050107;28;20053;-75
2024/01/27 02:18:29;;;;;;;2.08;1.70;;;;;;;;;;5054435;28;20501;-75
2024/01/27 02:20:55;;;;;;;5.30;1.73;;;;;;;;;;5055300;28;20043;-74
2024/01/27 02:23:20;;;;;;;4.95;2.00;;;;;;;;;;5052001;28;20128;-74
2024/01/27 02:25:45;;;;;;;3.78;1.77;;;;;;;;;;5055986;28;20132;-75
2024/01/27 02:28:13;;;;;;;7.20;1.95;;;;;;;;;;5054031;28;20784;-75
2024/01/27 02:30:38;;;;;;;10.05;2.58;;;;;;;;;;5054030;28;20041;-76
2024/01/27 02:33:04;;;;;;;7.93;2.05;;;;;;;;;;5055114;28;20574;-75
2024/01/27 02:35:29;;;;;;;2.92;2.20;;;;;;;;;;5064974;28;20029;-75
2024/01/27 02:37:54;;;;;;;1.95;1.75;;;;;;;;;;5055930;28;20041;-74
2024/01/27 02:40:20;;;;;;;9.07;2.17;;;;;;;;;;5052723;28;20413;-76
2024/01/27 02:42:45;;;;;;;6.07;1.90;;;;;;;;;;5058002;28;20041;-75
2024/01/27 02:45:11;;;;;;;6.97;2.10;;;;;;;;;;5057677;28;20521;-75
2024/01/27 02:47:37;;;;;;;3.35;2.10;;;;;;;;;;5057138;28;20040;-75
2024/01/27 02:50:02;;;;;;;5.55;2.22;;;;;;;;;;5054316;28;20116;-76
2024/01/27 02:52:28;;;;;;;3.45;2.08;;;;;;;;;;5057224;28;20037;-76
2024/01/27 02:54:53;;;;;;;2.85;2.00;;;;;;;;;;5059278;28;20052;-76
2024/01/27 02:57:19;;;;;;;10.02;2.58;;;;;;;;;;5061266;28;20029;-76
2024/01/27 02:59:47;;;;;;;4.55;2.50;;;;;;;;;;5059442;28;20385;-76
2024/01/27 03:02:13;;;;;;;6.05;2.63;;;;;;;;;;5053432;28;20039;-76
2024/01/27 03:04:38;;;;;;;2.78;2.20;;;;;;;;;;5051944;28;20037;-76
2024/01/27 03:07:04;;;;;;;3.00;2.20;;;;;;;;;;5056002;28;20044;-76
2024/01/27 03:09:30;;;;;;;4.55;2.22;;;;;;;;;;5055554;28;20032;-76
2024/01/27 03:11:55;;;;;;;2.17;1.98;;;;;;;;;;5052156;28;20040;-76
2024/01/27 03:14:20;;;;;;;10.30;2.50;;;;;;;;;;5053514;28;20029;-76
2024/01/27 03:16:45;;;;;;;11.02;2.65;;;;;;;;;;5053278;28;20086;-76
2024/01/27 03:19:11;;;;;;;3.35;2.40;;;;;;;;;;5057562;28;20036;-76
2024/01/27 03:21:36;;;;;;;5.55;2.85;;;;;;;;;;5052076;28;20052;-76
2024/01/27 03:24:01;;;;;;;14.00;4.05;;;;;;;;;;5064637;28;20094;-76
2024/01/27 03:26:27;;;;;;;8.23;3.55;;;;;;;;;;5057903;28;20052;-76
2024/01/27 03:28:52;;;;;;;13.73;4.15;;;;;;;;;;5054718;28;20029;-76
2024/01/27 03:31:18;;;;;;;11.40;3.33;;;;;;;;;;5054918;28;20037;-76
2024/01/27 03:33:43;;;;;;;11.68;2.83;;;;;;;;;;5060688;28;20162;-76
2024/01/27 03:36:10;;;;;;;13.50;4.07;;;;;;;;;;5062934;28;20073;-76
2024/01/27 03:38:36;;;;;;;7.18;3.30;;;;;;;;;;5053641;28;20400;-76
2024/01/27 03:41:02;;;;;;;7.93;3.40;;;;;;;;;;5049115;28;20703;-76
2024/01/27 03:43:27;;;;;;;7.57;4.25;;;;;;;;;;5017919;28;1085808;-75
2024/01/27 03:45:53;;;;;;;5.85;3.17;;;;;;;;;;5061094;28;20037;-76
2024/01/27 03:48:18;;;;;;;5.28;3.00;;;;;;;;;;5058525;28;20036;-76
2024/01/27 03:50:44;;;;;;;5.68;2.40;;;;;;;;;;5049211;28;20451;-76
2024/01/27 03:53:10;;;;;;;9.45;2.70;;;;;;;;;;5059339;28;20020;-75
2024/01/27 03:55:35;;;;;;;8.68;3.03;;;;;;;;;;5054590;28;20041;-76
2024/01/27 03:58:00;;;;;;;3.83;2.80;;;;;;;;;;5061815;28;20104;-76
2024/01/27 04:00:27;;;;;;;3.78;2.97;;;;;;;;;;5062788;28;20397;-76
2024/01/27 04:02:53;;;;;;;5.85;2.55;;;;;;;;;;5063634;28;20029;-76
2024/01/27 04:05:18;;;;;;;8.57;3.10;;;;;;;;;;5063670;28;20106;-76
2024/01/27 04:07:43;;;;;;;8.35;3.75;;;;;;;;;;5060005;28;20390;-76
2024/01/27 04:10:09;;;;;;;9.32;3.50;;;;;;;;;;5051290;28;20041;-76
2024/01/27 04:12:34;;;;;;;4.68;2.83;;;;;;;;;;5055666;28;20128;-76
2024/01/27 04:14:59;;;;;;;4.88;2.90;;;;;;;;;;5057200;28;20437;-75
2024/01/27 04:17:25;;;;;;;4.25;2.60;;;;;;;;;;5057504;28;20033;-76
2024/01/27 04:19:50;;;;;;;7.63;2.80;;;;;;;;;;5059673;28;20754;-75
2024/01/27 04:22:16;;;;;;;5.65;3.00;;;;;;;;;;5053422;28;20029;-76
2024/01/27 04:24:41;;;;;;;7.10;3.17;;;;;;;;;;5053352;28;20059;-76
2024/01/27 04:27:06;;;;;;;3.17;2.40;;;;;;;;;;5058845;28;20557;-75
2024/01/27 04:29:32;;;;;;;4.43;2.88;;;;;;;;;;5064375;28;20039;-76
2024/01/27 04:31:57;;;;;;;3.60;2.90;;;;;;;;;;5055463;28;20029;-75
2024/01/27 04:34:22;;;;;;;7.32;3.13;;;;;;;;;;5055838;28;20061;-75
2024/01/27 04:36:47;;;;;;;5.03;3.10;;;;;;;;;;5057333;28;20040;-75
2024/01/27 04:39:13;;;;;;;5.65;2.85;;;;;;;;;;5055921;28;20051;-75
2024/01/27 04:41:45;;;;;;;4.82;2.90;;;;;;;;;;5056704;28;20037;-75
2024/01/27 04:44:10;;;;;;;4.28;2.92;;;;;;;;;;5066715;28;20039;-75
2024/01/27 04:46:36;;;;;;;4.13;3.17;;;;;;;;;;5055618;28;20049;-75
2024/01/27 04:49:01;;;;;;;8.75;2.80;;;;;;;;;;5053494;28;20519;-75
2024/01/27 04:51:26;;;;;;;6.38;3.47;;;;;;;;;;5056489;28;20040;-75
2024/01/27 04:53:52;;;;;;;12.05;3.22;;;;;;;;;;5064417;28;20033;-75
2024/01/27 04:56:17;;;;;;;5.07;3.20;;;;;;;;;;5063199;28;20523;-75
2024/01/27 04:58:42;;;;;;;7.68;3.17;;;;;;;;;;5054190;28;20051;-75
2024/01/27 05:01:08;;;;;;;10.40;3.60;;;;;;;;;;5059294;28;20032;-75
2024/01/27 05:03:33;;;;;;;8.85;3.33;;;;;;;;;;5060507;28;20087;-75
2024/01/27 05:05:59;;;;;;;5.28;3.35;;;;;;;;;;5051406;28;20033;-75
2024/01/27 05:08:24;;;;;;;8.90;3.03;;;;;;;;;;5057202;28;20104;-75
2024/01/27 05:10:49;;;;;;;8.55;3.10;;;;;;;;;;5053263;28;20378;-73
2024/01/27 05:13:15;;;;;;;9.68;3.35;;;;;;;;;;5055501;28;20040;-73
2024/01/27 05:15:40;;;;;;;7.60;3.28;;;;;;;;;;5049141;28;20037;-73
2024/01/27 05:18:05;;;;;;;7.40;3.15;;;;;;;;;;5054080;28;20036;-73
2024/01/27 05:20:31;;;;;;;8.38;3.17;;;;;;;;;;5052820;28;20037;-74
2024/01/27 05:22:56;;;;;;;5.80;3.50;;;;;;;;;;5056763;28;20044;-73
2024/01/27 05:25:22;;;;;;;3.75;2.97;;;;;;;;;;5050178;28;20048;-73
2024/01/27 05:27:47;;;;;;;12.40;2.88;;;;;;;;;;5060604;28;20099;-73
2024/01/27 05:30:13;;;;;;;15.05;3.92;;;;;;;;;;5062752;28;20032;-73
2024/01/27 05:32:38;;;;;;;4.40;3.08;;;;;;;;;;5049554;28;20525;-73
2024/01/27 05:35:05;;;;;;;5.78;3.22;;;;;;;;;;5050263;28;20086;-74
2024/01/27 05:37:30;;;;;;;5.93;3.45;;;;;;;;;;5051910;28;20128;-73
2024/01/27 05:39:56;;;;;;;8.43;3.60;;;;;;;;;;5046382;28;20128;-73
2024/01/27 05:42:21;;;;;;;6.72;3.10;;;;;;;;;;5056372;28;20043;-73
2024/01/27 05:44:47;;;;;;;11.68;3.50;;;;;;;;;;5051547;28;20060;-73
2024/01/27 05:47:12;;;;;;;12.00;4.05;;;;;;;;;;5051378;28;20048;-73
2024/01/27 05:49:37;;;;;;;16.17;3.50;;;;;;;;;;5054753;28;20041;-73
2024/01/27 05:52:03;;;;;;;9.27;3.42;;;;;;;;;;5060951;28;20048;-74
2024/01/27 05:54:28;;;;;;;7.03;3.15;;;;;;;;;;5056130;28;20048;-73
2024/01/27 05:56:54;;;;;;;12.18;3.42;;;;;;;;;;5057238;28;20028;-74
2024/01/27 05:59:19;;;;;;;7.45;3.58;;;;;;;;;;5056762;28;20113;-73
2024/01/27 06:01:44;;;;;;;16.17;4.30;;;;;;;;;;5057832;28;20067;-73
2024/01/27 06:04:12;;;;;;;7.97;3.58;;;;;;;;;;5053344;28;20171;-74
2024/01/27 06:06:40;;;;;;;7.60;3.38;;;;;;;;;;5054594;28;20174;-73
2024/01/27 06:09:10;;;;;;;7.95;3.78;;;;;;;;;;5049755;28;20040;-76
2024/01/27 06:11:36;;;;;;;8.75;4.22;;;;;;;;;;5053421;28;20041;-74
2024/01/27 06:14:02;;;;;;;11.60;4.50;;;;;;;;;;5053381;28;20357;-74
2024/01/27 06:16:27;;;;;;;27.42;4.47;;;;;;;;;;5049453;28;20044;-74
2024/01/27 06:18:54;;;;;;;8.90;4.22;;;;;;;;;;5055690;28;20033;-74
2024/01/27 06:21:19;;;;;;;6.38;3.83;;;;;;;;;;5048501;28;20052;-74
2024/01/27 06:23:45;;;;;;;17.55;4.90;;;;;;;;;;5050233;28;20041;-74
2024/01/27 06:26:13;;;;;;;15.88;4.28;;;;;;;;;;5051506;28;20045;-74
2024/01/27 06:28:38;;;;;;;5.57;3.72;;;;;;;;;;5051048;28;20493;-74
2024/01/27 06:31:04;;;;;;;20.55;4.00;;;;;;;;;;5051326;28;20040;-74
2024/01/27 06:33:30;;;;;;;11.95;4.22;;;;;;;;;;5053775;28;20043;-74
2024/01/27 06:35:55;;;;;;;7.85;3.75;;;;;;;;;;5053513;28;20029;-74
2024/01/27 06:38:20;;;;;;;18.30;4.10;;;;;;;;;;5055276;28;20488;-74
2024/01/27 06:40:45;;;;;;;9.65;3.95;;;;;;;;;;5050995;28;20079;-74
2024/01/27 06:43:12;;;;;;;15.10;4.60;;;;;;;;;;5064811;28;20739;-74
2024/01/27 06:45:37;;;;;;;9.80;4.60;;;;;;;;;;5058800;28;20417;-74
2024/01/27 06:48:04;;;;;;;13.70;4.35;;;;;;;;;;5054735;28;20086;-74
2024/01/27 06:50:29;;;;;;;4.57;3.67;;;;;;;;;;5052808;28;20032;-74
2024/01/27 06:52:54;;;;;;;10.13;5.10;;;;;;;;;;5054344;28;20095;-74
2024/01/27 06:55:19;;;;;;;17.58;5.63;;;;;;;;;;5055858;28;20037;-74
2024/01/27 06:57:45;;;;;;;18.95;5.20;;;;;;;;;;5057580;28;20460;-74
2024/01/27 07:00:14;;;;;;;9.98;4.90;;;;;;;;;;5049492;28;20045;-77
2024/01/27 07:02:41;;;;;;;24.83;7.00;;;;;;;;;;5049928;28;20032;-74
2024/01/27 07:05:07;;;;;;;12.05;5.30;;;;;;;;;;5061512;28;20036;-74
2024/01/27 07:07:33;;;;;;;10.57;4.55;;;;;;;;;;5051358;28;20051;-74
2024/01/27 07:09:58;;;;;;;9.45;4.85;;;;;;;;;;5049518;28;20128;-74
2024/01/27 07:12:24;;;;;;;5.55;3.83;;;;;;;;;;5052697;28;20090;-74
2024/01/27 07:14:49;;;;;;;9.40;4.50;;;;;;;;;;5049050;28;20049;-73
2024/01/27 07:17:14;;;;;;;8.40;4.57;;;;;;;;;;5041255;28;20030;-73
2024/01/27 07:19:40;;;;;;;11.63;6.10;;;;;;;;;;5039450;28;20502;-74
2024/01/27 07:22:05;;;;;;;17.55;7.07;;;;;;;;;;5035567;28;20063;-74
2024/01/27 07:24:31;;;;;;;29.88;11.88;;;;;;;;;;5057837;28;20520;-74
2024/01/27 07:26:58;;;;;;;27.25;9.02;;;;;;;;;;5052082;28;20560;-74
2024/01/27 07:29:23;;;;;;;26.35;9.93;;;;;;;;;;5054396;28;20033;-74
2024/01/27 07:31:49;;;;;;;23.30;8.55;;;;;;;;;;5058395;28;20095;-73
2024/01/27 07:34:15;;;;;;;19.73;8.13;;;;;;;;;;5047139;28;20413;-74
2024/01/27 07:36:40;;;;;;;12.23;6.25;;;;;;;;;;5064930;28;20048;-74
2024/01/27 07:39:06;;;;;;;30.00;10.10;;;;;;;;;;5064598;28;20028;-74
2024/01/27 07:41:31;;;;;;;21.35;8.38;;;;;;;;;;5061670;28;20037;-74
2024/01/27 07:43:57;;;;;;;25.30;7.50;;;;;;;;;;5054444;28;20090;-74
2024/01/27 07:46:22;;;;;;;28.85;8.20;;;;;;;;;;5053304;28;20101;-74
2024/01/27 07:48:50;;;;;;;18.75;7.38;;;;;;;;;;5054745;28;20036;-74
2024/01/27 07:51:16;;;;;;;18.75;7.43;;;;;;;;;;5056211;28;20025;-74
2024/01/27 07:53:41;;;;;;;18.55;6.80;;;;;;;;;;5051256;28;20029;-74
2024/01/27 07:56:07;;;;;;;17.73;7.05;;;;;;;;;;5058362;28;20025;-74
2024/01/27 07:58:32;;;;;;;20.27;5.85;;;;;;;;;;5058392;28;20688;-74
2024/01/27 08:00:58;;;;;;;11.48;5.60;;;;;;;;;;5059994;28;20049;-75
2024/01/27 08:03:23;;;;;;;15.38;6.35;;;;;;;;;;5056313;28;20064;-75
2024/01/27 08:05:49;;;;;;;118.85;10.27;;;;;;;;;;5054224;28;20115;-74
2024/01/27 08:08:14;;;;;;;14.85;5.35;;;;;;;;;;5052350;28;20037;-74
2024/01/27 08:10:40;;;;;;;31.50;6.15;;;;;;;;;;5048726;28;20061;-74
2024/01/27 08:13:06;;;;;;;11.25;5.20;;;;;;;;;;5053330;28;20036;-75
2024/01/27 08:15:32;;;;;;;11.57;6.43;;;;;;;;;;5058549;28;20040;-75
2024/01/27 08:17:57;;;;;;;13.35;6.25;;;;;;;;;;5051348;28;20036;-74
2024/01/27 08:20:22;;;;;;;11.57;6.10;;;;;;;;;;5057576;28;20035;-74
2024/01/27 08:22:51;;;;;;;11.43;5.70;;;;;;;;;;5050856;28;20060;-74
2024/01/27 08:25:16;;;;;;;12.68;6.20;;;;;;;;;;5052773;28;20402;-74
2024/01/27 08:27:42;;;;;;;14.48;5.25;;;;;;;;;;5051344;28;20048;-74
2024/01/27 08:30:08;;;;;;;11.32;4.50;;;;;;;;;;5047157;28;20112;-75
2024/01/27 08:32:34;;;;;;;14.63;5.70;;;;;;;;;;5060617;28;20033;-74
2024/01/27 08:34:59;;;;;;;13.38;5.95;;;;;;;;;;5047499;28;20052;-75
2024/01/27 08:37:25;;;;;;;16.75;6.35;;;;;;;;;;5053587;28;20401;-75
2024/01/27 08:39:51;;;;;;;10.85;6.10;;;;;;;;;;5054328;28;20037;-74
2024/01/27 08:42:16;;;;;;;11.73;6.35;;;;;;;;;;5043233;28;20540;-74
2024/01/27 08:44:42;;;;;;;18.33;5.80;;;;;;;;;;5049270;28;20057;-74
2024/01/27 08:47:07;;;;;;;10.10;5.82;;;;;;;;;;5048934;28;20056;-74
2024/01/27 08:49:33;;;;;;;17.50;6.03;;;;;;;;;;5047752;28;20053;-75
2024/01/27 08:51:58;;;;;;;18.88;6.25;;;;;;;;;;5052391;28;20777;-75
2024/01/27 08:54:24;;;;;;;13.23;5.82;;;;;;;;;;5058866;28;20488;-74
2024/01/27 08:56:50;;;;;;;10.35;5.72;;;;;;;;;;5053536;28;20061;-74
2024/01/27 08:59:15;;;;;;;10.25;5.72;;;;;;;;;;5061227;28;20029;-75
2024/01/27 09:01:42;;;;;;;11.50;5.85;;;;;;;;;;5053287;28;20095;-75
2024/01/27 09:04:07;;;;;;;13.23;5.75;;;;;;;;;;5059699;28;20039;-75
2024/01/27 09:06:33;;;;;;;25.83;6.65;;;;;;;;;;5058525;28;20053;-74
2024/01/27 09:08:58;;;;;;;17.63;6.68;;;;;;;;;;5051349;28;20041;-76
2024/01/27 09:11:23;;;;;;;14.02;5.65;;;;;;;;;;5049120;28;20048;-75
2024/01/27 09:13:51;;;;;;;18.33;6.75;;;;;;;;;;5063844;28;20028;-74
2024/01/27 09:16:18;;;;;;;15.13;6.72;;;;;;;;;;5061434;28;20037;-75
2024/01/27 09:18:43;;;;;;;8.23;5.70;;;;;;;;;;5065532;28;20161;-75
2024/01/27 09:21:09;;;;;;;17.65;6.85;;;;;;;;;;5064710;28;20121;-75
2024/01/27 09:23:34;;;;;;;15.82;5.82;;;;;;;;;;5055848;28;20041;-75
2024/01/27 09:26:00;;;;;;;13.20;5.38;;;;;;;;;;5066536;28;20101;-75
2024/01/27 09:28:25;;;;;;;19.02;5.60;;;;;;;;;;5051260;28;20158;-75
2024/01/27 09:30:51;;;;;;;9.48;5.25;;;;;;;;;;5058016;28;20029;-75
2024/01/27 09:33:19;;;;;;;12.93;6.10;;;;;;;;;;5055148;28;20040;-75
2024/01/27 09:35:45;;;;;;;14.23;6.07;;;;;;;;;;5048160;28;20426;-74
2024/01/27 09:38:12;;;;;;;16.45;5.85;;;;;;;;;;5048344;28;20044;-75
2024/01/27 09:40:38;;;;;;;18.45;5.40;;;;;;;;;;5048732;28;20044;-75
2024/01/27 09:43:04;;;;;;;14.52;5.65;;;;;;;;;;5042586;28;20415;-75
2024/01/27 09:45:29;;;;;;;14.77;6.25;;;;;;;;;;5051197;28;20041;-75
2024/01/27 09:47:59;;;;;;;9.75;5.30;;;;;;;;;;5042851;28;20490;-75
2024/01/27 09:50:25;;;;;;;19.80;5.90;;;;;;;;;;5056180;28;20033;-74
2024/01/27 09:52:51;;;;;;;11.32;4.90;;;;;;;;;;5053643;28;20040;-75
2024/01/27 09:55:16;;;;;;;10.07;3.63;;;;;;;;;;5057467;28;20032;-75
2024/01/27 09:57:44;;;;;;;18.17;5.85;;;;;;;;;;5050873;28;20497;-75
2024/01/27 10:00:11;;;;;;;13.30;3.80;;;;;;;;;;5057623;28;20493;-75
2024/01/27 10:02:41;;;;;;;11.70;3.92;;;;;;;;;;5051804;28;20045;-75
2024/01/27 10:05:08;;;;;;;9.10;4.15;;;;;;;;;;5049657;28;20454;-75
2024/01/27 10:07:34;;;;;;;9.52;3.88;;;;;;;;;;5047552;28;20041;-75
2024/01/27 10:09:59;;;;;;;11.55;4.57;;;;;;;;;;5052592;28;20922;-75
2024/01/27 10:12:25;;;;;;;18.17;4.30;;;;;;;;;;5048454;28;20037;-75
2024/01/27 10:14:52;;;;;;;10.27;4.13;;;;;;;;;;5052015;28;20029;-75
2024/01/27 10:17:28;;;;;;;7.43;4.05;;;;;;;;;;5045377;28;20127;-75
2024/01/27 10:20:01;;;;;;;7.60;4.15;;;;;;;;;;5054689;28;20057;-75
2024/01/27 10:22:27;;;;;;;11.07;4.97;;;;;;;;;;5048855;28;20040;-75
2024/01/27 10:24:52;;;;;;;9.75;3.90;;;;;;;;;;5055825;28;20040;-75
2024/01/27 10:27:18;;;;;;;16.15;4.20;;;;;;;;;;5065322;28;20027;-75
2024/01/27 10:29:57;;;;;;;14.68;4.35;;;;;;;;;;5053984;28;22026;-75
2024/01/27 10:32:24;;;;;;;11.40;5.45;;;;;;;;;;5046702;28;20033;-75
2024/01/27 10:35:09;;;;;;;11.55;4.20;;;;;;;;;;5054956;28;20397;-75
2024/01/27 10:37:35;;;;;;;10.27;4.30;;;;;;;;;;5052934;28;20520;-75
2024/01/27 10:40:07;;;;;;;8.63;4.53;;;;;;;;;;5050573;28;20033;-76
2024/01/27 10:42:34;;;;;;;11.50;4.68;;;;;;;;;;5062089;28;20127;-75
2024/01/27 10:45:00;;;;;;;15.32;4.65;;;;;;;;;;5062979;28;20044;-76
2024/01/27 10:47:30;;;;;;;9.20;3.65;;;;;;;;;;5056750;28;20036;-74
2024/01/27 10:49:59;;;;;;;10.90;5.03;;;;;;;;;;5059944;28;20801;-74
2024/01/27 10:52:32;;;;;;;9.15;4.50;;;;;;;;;;5065601;28;20044;-75
2024/01/27 10:55:02;;;;;;;13.05;4.35;;;;;;;;;;5061078;28;20049;-75
2024/01/27 10:57:29;;;;;;;6.00;3.83;;;;;;;;;;5061302;28;20045;-75
2024/01/27 10:59:56;;;;;;;11.93;3.70;;;;;;;;;;5061948;28;20600;-75
2024/01/27 11:02:22;;;;;;;8.43;3.30;;;;;;;;;;5062474;28;20409;-75
2024/01/27 11:04:48;;;;;;;9.77;3.60;;;;;;;;;;5059266;28;20099;-75
2024/01/27 11:07:13;;;;;;;7.78;3.67;;;;;;;;;;5069004;28;20051;-75
2024/01/27 11:09:39;;;;;;;6.53;3.42;;;;;;;;;;5057096;28;20041;-75
2024/01/27 11:12:05;;;;;;;14.18;4.65;;;;;;;;;;5070060;28;20036;-75
2024/01/27 11:14:31;;;;;;;14.25;5.25;;;;;;;;;;5063731;28;20044;-75
2024/01/27 11:16:57;;;;;;;11.52;5.32;;;;;;;;;;5070486;28;20032;-75
2024/01/27 11:19:23;;;;;;;12.48;4.15;;;;;;;;;;5065650;28;20040;-75
2024/01/27 11:22:00;;;;;;;7.78;4.57;;;;;;;;;;5065632;28;20521;-75
2024/01/27 11:24:25;;;;;;;8.98;3.97;;;;;;;;;;5046995;28;20040;-75
2024/01/27 11:27:00;;;;;;;8.68;4.00;;;;;;;;;;5070175;28;20033;-75
2024/01/27 11:29:26;;;;;;;10.20;3.88;;;;;;;;;;5062923;28;20400;-75
2024/01/27 11:31:52;;;;;;;11.90;4.20;;;;;;;;;;5070944;28;20048;-75
2024/01/27 11:34:19;;;;;;;6.90;3.90;;;;;;;;;;5059763;28;20028;-75
2024/01/27 11:36:45;;;;;;;13.82;4.40;;;;;;;;;;5064055;28;20040;-75
2024/01/27 11:39:24;;;;;;;11.93;4.28;;;;;;;;;;5063372;28;20037;-76
2024/01/27 11:41:49;;;;;;;10.02;4.13;;;;;;;;;;5061065;28;20445;-75
2024/01/27 11:44:15;;;;;;;4.93;3.15;;;;;;;;;;5056376;28;20140;-75
2024/01/27 11:46:41;;;;;;;12.40;4.28;;;;;;;;;;5057629;28;20389;-74
2024/01/27 11:49:06;;;;;;;7.47;4.03;;;;;;;;;;5061264;28;20060;-74
2024/01/27 11:51:31;;;;;;;4.72;3.47;;;;;;;;;;5065839;28;20040;-76
2024/01/27 11:53:57;;;;;;;7.22;3.35;;;;;;;;;;5044526;28;20040;-74
2024/01/27 11:56:22;;;;;;;8.63;3.47;;;;;;;;;;5061379;28;20064;-74
2024/01/27 11:58:49;;;;;;;8.75;3.60;;;;;;;;;;5061392;28;20041;-75
2024/01/27 12:01:15;;;;;;;11.38;3.92;;;;;;;;;;5070526;28;20037;-74
2024/01/27 12:03:40;;;;;;;8.02;3.45;;;;;;;;;;5068724;28;20040;-76
2024/01/27 12:06:07;;;;;;;10.50;3.97;;;;;;;;;;5067879;28;20404;-74
2024/01/27 12:08:35;;;;;;;5.10;4.03;;;;;;;;;;5050965;28;20048;-74
2024/01/27 12:11:00;;;;;;;8.20;3.50;;;;;;;;;;5065297;28;20047;-74
2024/01/27 12:13:26;;;;;;;9.35;3.92;;;;;;;;;;5058856;28;20033;-74
2024/01/27 12:15:51;;;;;;;6.43;3.72;;;;;;;;;;5068577;28;20504;-74
2024/01/27 12:18:18;;;;;;;7.40;4.18;;;;;;;;;;5059095;28;20031;-74
2024/01/27 12:20:44;;;;;;;11.30;4.35;;;;;;;;;;5056716;28;20118;-74
2024/01/27 12:23:10;;;;;;;9.75;3.28;;;;;;;;;;5055005;28;20390;-74
2024/01/27 12:25:35;;;;;;;8.73;4.20;;;;;;;;;;5059157;28;20044;-75
2024/01/27 12:28:05;;;;;;;6.70;4.13;;;;;;;;;;5060168;28;20032;-74
2024/01/27 12:30:32;;;;;;;15.05;4.55;;;;;;;;;;5057021;28;20074;-74
2024/01/27 12:32:57;;;;;;;9.80;4.03;;;;;;;;;;5055947;28;20121;-75
2024/01/27 12:35:23;;;;;;;8.57;4.07;;;;;;;;;;5052186;28;20119;-74
2024/01/27 12:37:49;;;;;;;4.07;3.28;;;;;;;;;;5053417;28;20497;-75
2024/01/27 12:40:19;;;;;;;8.88;3.85;;;;;;;;;;5051524;28;20068;-74
2024/01/27 12:42:44;;;;;;;7.57;3.20;;;;;;;;;;5051802;28;20040;-74
2024/01/27 12:45:09;;;;;;;6.93;3.90;;;;;;;;;;5054325;28;20534;-75
2024/01/27 12:47:35;;;;;;;5.30;3.55;;;;;;;;;;5049501;28;20061;-75
2024/01/27 12:50:00;;;;;;;12.15;4.00;;;;;;;;;;5063920;28;20032;-75
2024/01/27 12:52:25;;;;;;;8.32;3.42;;;;;;;;;;5055951;28;20460;-75
2024/01/27 12:54:51;;;;;;;8.15;3.33;;;;;;;;;;5064630;28;20044;-75
2024/01/27 12:57:17;;;;;;;7.55;3.30;;;;;;;;;;5053928;28;20020;-75
2024/01/27 12:59:43;;;;;;;4.57;3.25;;;;;;;;;;5055494;28;20057;-75
2024/01/27 13:02:08;;;;;;;4.97;3.15;;;;;;;;;;5062058;28;20071;-75
2024/01/27 13:04:33;;;;;;;4.78;3.20;;;;;;;;;;5060051;28;20044;-75
2024/01/27 13:07:00;;;;;;;10.55;3.35;;;;;;;;;;5054255;28;20040;-75
2024/01/27 13:09:25;;;;;;;10.95;3.90;;;;;;;;;;5055662;28;20041;-74
2024/01/27 13:11:50;;;;;;;9.65;3.58;;;;;;;;;;5034687;28;20484;-75
2024/01/27 13:14:18;;;;;;;6.25;3.15;;;;;;;;;;5059346;28;20082;-74
2024/01/27 13:16:43;;;;;;;10.90;3.22;;;;;;;;;;5055503;28;20041;-74
2024/01/27 13:19:09;;;;;;;5.40;3.10;;;;;;;;;;5054877;28;20374;-74
2024/01/27 13:21:34;;;;;;;8.63;3.47;;;;;;;;;;5054754;28;20090;-74
2024/01/27 13:23:59;;;;;;;7.28;3.50;;;;;;;;;;5057844;28;20048;-74
2024/01/27 13:26:25;;;;;;;8.10;3.63;;;;;;;;;;5058843;28;20025;-74
2024/01/27 13:28:50;;;;;;;4.88;3.28;;;;;;;;;;5060955;28;20040;-74
2024/01/27 13:31:16;;;;;;;5.93;2.90;;;;;;;;;;5062584;28;20244;-75
2024/01/27 13:33:41;;;;;;;8.60;3.38;;;;;;;;;;5068811;28;20033;-75
2024/01/27 13:36:07;;;;;;;10.75;3.20;;;;;;;;;;5059673;28;20047;-75
2024/01/27 13:38:33;;;;;;;7.68;2.67;;;;;;;;;;5058483;28;20129;-75
2024/01/27 13:40:59;;;;;;;6.43;3.08;;;;;;;;;;5062501;28;20040;-75
2024/01/27 13:43:24;;;;;;;10.05;2.67;;;;;;;;;;5061142;28;20049;-75
2024/01/27 13:45:51;;;;;;;5.53;2.70;;;;;;;;;;5054127;28;20369;-75
2024/01/27 13:48:16;;;;;;;4.35;2.70;;;;;;;;;;5053244;28;20040;-75
2024/01/27 13:50:41;;;;;;;4.85;2.63;;;;;;;;;;5054455;28;20041;-75
2024/01/27 13:53:07;;;;;;;8.55;2.53;;;;;;;;;;5055443;28;20052;-75
2024/01/27 13:55:32;;;;;;;3.90;2.60;;;;;;;;;;5050332;28;20370;-75
2024/01/27 13:57:57;;;;;;;6.72;2.60;;;;;;;;;;5054369;28;20067;-75
2024/01/27 14:00:23;;;;;;;6.03;2.80;;;;;;;;;;5046862;28;20386;-75
2024/01/27 14:02:48;;;;;;;6.35;2.25;;;;;;;;;;5063408;28;20107;-75
2024/01/27 14:05:13;;;;;;;7.03;3.00;;;;;;;;;;5054279;28;20041;-75
2024/01/27 14:07:39;;;;;;;5.28;2.42;;;;;;;;;;5051000;28;20106;-76
2024/01/27 14:10:04;;;;;;;6.10;2.30;;;;;;;;;;5057061;28;20036;-74
2024/01/27 14:12:30;;;;;;;6.93;3.00;;;;;;;;;;5047992;28;20036;-75
2024/01/27 14:15:04;;;;;;;5.32;3.45;;;;;;;;;;5056779;28;20048;-75
2024/01/27 14:17:30;;;;;;;3.23;2.07;;;;;;;;;;5058730;28;20111;-75
2024/01/27 14:19:55;;;;;;;2.95;2.58;;;;;;;;;;5063879;28;21126;-75
2024/01/27 14:22:20;;;;;;;3.67;2.88;;;;;;;;;;5068978;28;20400;-75
2024/01/27 14:24:45;;;;;;;7.32;2.90;;;;;;;;;;5069939;28;20120;-75
2024/01/27 14:27:11;;;;;;;4.38;2.20;;;;;;;;;;5061991;28;20040;-75
2024/01/27 14:29:36;;;;;;;6.80;2.80;;;;;;;;;;5059975;28;20044;-75